sensor_id;sensor_type;location;lat;lon;timestamp;temperature;humidity
666;DHT22;315;48.738;9.126;2023-12-20T00:00:54;6.20;99.90
666;DHT22;315;48.738;9.126;2023-12-20T00:03:20;6.10;99.90
666;DHT22;315;48.738;9.126;2023-12-20T00:05:46;6.10;99.90
666;DHT22;315;48.738;9.126;2023-12-20T00:08:12;6.10;99.90
666;DHT22;315;48.738;9.126;2023-12-20T00:10:38;6.10;99.90
666;DHT22;315;48.738;9.126;2023-12-20T00:13:03;6.10;99.90
666;DHT22;315;48.738;9.126;2023-12-20T00:15:29;6.20;99.90
666;DHT22;315;48.738;9.126;2023-12-20T00:17:54;6.20;99.90
666;DHT22;315;48.738;9.126;2023-12-20T00:20:20;6.20;99.90
666;DHT22;315;48.738;9.126;2023-12-20T00:22:45;6.10;99.90
666;DHT22;315;48.738;9.126;2023-12-20T00:25:11;6.10;99.90
666;DHT22;315;48.738;9.126;2023-12-20T00:27:37;6.10;99.90
666;DHT22;315;48.738;9.126;2023-12-20T00:30:02;6.10;99.90
666;DHT22;315;48.738;9.126;2023-12-20T00:32:28;6.00;99.90
666;DHT22;315;48.738;9.126;2023-12-20T00:34:53;6.00;99.90
666;DHT22;315;48.738;9.126;2023-12-20T00:37:19;6.00;99.90
666;DHT22;315;48.738;9.126;2023-12-20T00:39:44;6.00;99.90
666;DHT22;315;48.738;9.126;2023-12-20T00:42:10;6.00;99.90
666;DHT22;315;48.738;9.126;2023-12-20T00:44:35;6.00;99.90
666;DHT22;315;48.738;9.126;2023-12-20T00:47:01;5.90;99.90
666;DHT22;315;48.738;9.126;2023-12-20T00:49:26;5.90;99.90
666;DHT22;315;48.738;9.126;2023-12-20T00:51:52;5.90;99.90
666;DHT22;315;48.738;9.126;2023-12-20T00:54:18;5.90;99.90
666;DHT22;315;48.738;9.126;2023-12-20T00:56:43;5.80;99.90
666;DHT22;315;48.738;9.126;2023-12-20T00:59:09;5.80;99.90
666;DHT22;315;48.738;9.126;2023-12-20T01:01:35;5.80;99.90
666;DHT22;315;48.738;9.126;2023-12-20T01:04:00;5.80;99.90
666;DHT22;315;48.738;9.126;2023-12-20T01:06:26;5.70;99.90
666;DHT22;315;48.738;9.126;2023-12-20T01:08:51;5.70;99.90
666;DHT22;315;48.738;9.126;2023-12-20T01:11:17;5.70;99.90
666;DHT22;315;48.738;9.126;2023-12-20T01:13:42;5.70;99.90
666;DHT22;315;48.738;9.126;2023-12-20T01:16:12;5.70;99.90
666;DHT22;315;48.738;9.126;2023-12-20T01:18:37;5.70;99.90
666;DHT22;315;48.738;9.126;2023-12-20T01:21:04;5.70;99.90
666;DHT22;315;48.738;9.126;2023-12-20T01:23:30;5.70;99.90
666;DHT22;315;48.738;9.126;2023-12-20T01:25:56;5.70;99.90
666;DHT22;315;48.738;9.126;2023-12-20T01:28:21;5.70;99.90
666;DHT22;315;48.738;9.126;2023-12-20T01:30:47;5.70;99.90
666;DHT22;315;48.738;9.126;2023-12-20T01:33:12;5.70;99.90
666;DHT22;315;48.738;9.126;2023-12-20T01:35:38;5.70;99.90
666;DHT22;315;48.738;9.126;2023-12-20T01:38:03;5.70;99.90
666;DHT22;315;48.738;9.126;2023-12-20T01:40:29;5.70;99.90
666;DHT22;315;48.738;9.126;2023-12-20T01:42:59;5.70;99.90
666;DHT22;315;48.738;9.126;2023-12-20T01:45:24;5.70;99.90
666;DHT22;315;48.738;9.126;2023-12-20T01:47:50;5.70;99.90
666;DHT22;315;48.738;9.126;2023-12-20T01:50:16;5.70;99.90
666;DHT22;315;48.738;9.126;2023-12-20T01:52:43;5.80;99.90
666;DHT22;315;48.738;9.126;2023-12-20T01:55:09;5.80;99.90
666;DHT22;315;48.738;9.126;2023-12-20T01:57:40;5.80;99.90
666;DHT22;315;48.738;9.126;2023-12-20T02:00:07;5.80;99.90
666;DHT22;315;48.738;9.126;2023-12-20T02:02:36;5.80;99.90
666;DHT22;315;48.738;9.126;2023-12-20T02:05:03;5.80;99.90
666;DHT22;315;48.738;9.126;2023-12-20T02:07:31;5.80;99.90
666;DHT22;315;48.738;9.126;2023-12-20T02:09:56;5.80;99.90
666;DHT22;315;48.738;9.126;2023-12-20T02:12:22;5.80;99.90
666;DHT22;315;48.738;9.126;2023-12-20T02:14:48;5.80;99.90
666;DHT22;315;48.738;9.126;2023-12-20T02:17:15;5.80;99.90
666;DHT22;315;48.738;9.126;2023-12-20T02:19:40;5.80;99.90
666;DHT22;315;48.738;9.126;2023-12-20T02:22:12;5.80;99.90
666;DHT22;315;48.738;9.126;2023-12-20T02:24:38;5.80;99.90
666;DHT22;315;48.738;9.126;2023-12-20T02:27:06;5.80;99.90
666;DHT22;315;48.738;9.126;2023-12-20T02:29:33;5.80;99.90
666;DHT22;315;48.738;9.126;2023-12-20T02:31:59;5.80;99.90
666;DHT22;315;48.738;9.126;2023-12-20T02:34:24;5.80;99.90
666;DHT22;315;48.738;9.126;2023-12-20T02:36:50;5.80;99.90
666;DHT22;315;48.738;9.126;2023-12-20T02:39:16;5.80;99.90
666;DHT22;315;48.738;9.126;2023-12-20T02:41:41;5.80;99.90
666;DHT22;315;48.738;9.126;2023-12-20T02:44:07;5.80;99.90
666;DHT22;315;48.738;9.126;2023-12-20T02:46:33;5.80;99.90
666;DHT22;315;48.738;9.126;2023-12-20T02:48:58;5.80;99.90
666;DHT22;315;48.738;9.126;2023-12-20T02:51:24;5.90;99.90
666;DHT22;315;48.738;9.126;2023-12-20T02:53:49;5.90;99.90
666;DHT22;315;48.738;9.126;2023-12-20T02:56:15;5.90;99.90
666;DHT22;315;48.738;9.126;2023-12-20T02:58:40;5.90;99.90
666;DHT22;315;48.738;9.126;2023-12-20T03:01:06;5.90;99.90
666;DHT22;315;48.738;9.126;2023-12-20T03:03:32;6.00;99.90
666;DHT22;315;48.738;9.126;2023-12-20T03:05:58;6.00;99.90
666;DHT22;315;48.738;9.126;2023-12-20T03:08:23;6.10;99.90
666;DHT22;315;48.738;9.126;2023-12-20T03:10:49;6.10;99.90
666;DHT22;315;48.738;9.126;2023-12-20T03:13:14;6.10;99.90
666;DHT22;315;48.738;9.126;2023-12-20T03:15:40;6.10;99.90
666;DHT22;315;48.738;9.126;2023-12-20T03:18:06;6.10;99.90
666;DHT22;315;48.738;9.126;2023-12-20T03:20:31;6.10;99.90
666;DHT22;315;48.738;9.126;2023-12-20T03:23:00;6.10;99.90
666;DHT22;315;48.738;9.126;2023-12-20T03:25:26;6.10;99.90
666;DHT22;315;48.738;9.126;2023-12-20T03:27:52;6.10;99.90
666;DHT22;315;48.738;9.126;2023-12-20T03:30:18;6.10;99.90
666;DHT22;315;48.738;9.126;2023-12-20T03:32:43;6.10;99.90
666;DHT22;315;48.738;9.126;2023-12-20T03:35:09;6.10;99.90
666;DHT22;315;48.738;9.126;2023-12-20T03:37:35;6.00;99.90
666;DHT22;315;48.738;9.126;2023-12-20T03:40:00;5.90;99.90
666;DHT22;315;48.738;9.126;2023-12-20T03:42:26;5.80;99.90
666;DHT22;315;48.738;9.126;2023-12-20T03:44:51;5.80;99.90
666;DHT22;315;48.738;9.126;2023-12-20T03:47:17;5.70;99.90
666;DHT22;315;48.738;9.126;2023-12-20T03:49:42;5.70;99.90
666;DHT22;315;48.738;9.126;2023-12-20T03:52:08;5.60;99.90
666;DHT22;315;48.738;9.126;2023-12-20T03:54:35;5.60;99.90
666;DHT22;315;48.738;9.126;2023-12-20T03:57:01;5.60;99.90
666;DHT22;315;48.738;9.126;2023-12-20T03:59:26;5.60;99.90
666;DHT22;315;48.738;9.126;2023-12-20T04:01:52;5.50;99.90
666;DHT22;315;48.738;9.126;2023-12-20T04:04:17;5.50;99.90
666;DHT22;315;48.738;9.126;2023-12-20T04:06:43;5.60;99.90
666;DHT22;315;48.738;9.126;2023-12-20T04:09:08;5.50;99.90
666;DHT22;315;48.738;9.126;2023-12-20T04:11:37;5.50;99.90
666;DHT22;315;48.738;9.126;2023-12-20T04:14:03;5.50;99.90
666;DHT22;315;48.738;9.126;2023-12-20T04:16:30;5.50;99.90
666;DHT22;315;48.738;9.126;2023-12-20T04:18:55;5.50;99.90
666;DHT22;315;48.738;9.126;2023-12-20T04:21:21;5.50;99.90
666;DHT22;315;48.738;9.126;2023-12-20T04:23:46;5.50;99.90
666;DHT22;315;48.738;9.126;2023-12-20T04:26:12;5.50;99.90
666;DHT22;315;48.738;9.126;2023-12-20T04:28:37;5.50;99.90
666;DHT22;315;48.738;9.126;2023-12-20T04:31:03;5.50;99.90
666;DHT22;315;48.738;9.126;2023-12-20T04:33:28;5.40;99.90
666;DHT22;315;48.738;9.126;2023-12-20T04:35:54;5.40;99.90
666;DHT22;315;48.738;9.126;2023-12-20T04:38:19;5.40;99.90
666;DHT22;315;48.738;9.126;2023-12-20T04:40:45;5.40;99.90
666;DHT22;315;48.738;9.126;2023-12-20T04:43:10;5.40;99.90
666;DHT22;315;48.738;9.126;2023-12-20T04:45:36;5.40;99.90
666;DHT22;315;48.738;9.126;2023-12-20T04:48:02;5.40;99.90
666;DHT22;315;48.738;9.126;2023-12-20T04:50:27;5.40;99.90
666;DHT22;315;48.738;9.126;2023-12-20T04:52:53;5.40;99.90
666;DHT22;315;48.738;9.126;2023-12-20T04:55:19;5.40;99.90
666;DHT22;315;48.738;9.126;2023-12-20T04:57:44;5.30;99.90
666;DHT22;315;48.738;9.126;2023-12-20T05:00:10;5.30;99.90
666;DHT22;315;48.738;9.126;2023-12-20T05:02:36;5.30;99.90
666;DHT22;315;48.738;9.126;2023-12-20T05:05:02;5.30;99.90
666;DHT22;315;48.738;9.126;2023-12-20T05:07:27;5.40;99.90
666;DHT22;315;48.738;9.126;2023-12-20T05:09:53;5.30;99.90
666;DHT22;315;48.738;9.126;2023-12-20T05:12:19;5.30;99.90
666;DHT22;315;48.738;9.126;2023-12-20T05:14:45;5.30;99.90
666;DHT22;315;48.738;9.126;2023-12-20T05:17:11;5.30;99.90
666;DHT22;315;48.738;9.126;2023-12-20T05:19:36;5.30;99.90
666;DHT22;315;48.738;9.126;2023-12-20T05:22:02;5.30;99.90
666;DHT22;315;48.738;9.126;2023-12-20T05:24:28;5.30;99.90
666;DHT22;315;48.738;9.126;2023-12-20T05:26:53;5.30;99.90
666;DHT22;315;48.738;9.126;2023-12-20T05:29:19;5.30;99.90
666;DHT22;315;48.738;9.126;2023-12-20T05:31:44;5.30;99.90
666;DHT22;315;48.738;9.126;2023-12-20T05:34:10;5.30;99.90
666;DHT22;315;48.738;9.126;2023-12-20T05:36:36;5.30;99.90
666;DHT22;315;48.738;9.126;2023-12-20T05:39:02;5.30;99.90
666;DHT22;315;48.738;9.126;2023-12-20T05:41:30;5.30;99.90
666;DHT22;315;48.738;9.126;2023-12-20T05:43:55;5.30;99.90
666;DHT22;315;48.738;9.126;2023-12-20T05:46:23;5.40;99.90
666;DHT22;315;48.738;9.126;2023-12-20T05:48:49;5.40;99.90
666;DHT22;315;48.738;9.126;2023-12-20T05:51:15;5.40;99.90
666;DHT22;315;48.738;9.126;2023-12-20T05:53:40;5.40;99.90
666;DHT22;315;48.738;9.126;2023-12-20T05:56:06;5.30;99.90
666;DHT22;315;48.738;9.126;2023-12-20T05:58:33;5.30;99.90
666;DHT22;315;48.738;9.126;2023-12-20T06:00:59;5.40;99.90
666;DHT22;315;48.738;9.126;2023-12-20T06:03:24;5.30;99.90
666;DHT22;315;48.738;9.126;2023-12-20T06:05:50;5.40;99.90
666;DHT22;315;48.738;9.126;2023-12-20T06:08:15;5.40;99.90
666;DHT22;315;48.738;9.126;2023-12-20T06:10:41;5.40;99.90
666;DHT22;315;48.738;9.126;2023-12-20T06:13:06;5.40;99.90
666;DHT22;315;48.738;9.126;2023-12-20T06:15:32;5.40;99.90
666;DHT22;315;48.738;9.126;2023-12-20T06:17:58;5.40;99.90
666;DHT22;315;48.738;9.126;2023-12-20T06:20:23;5.40;99.90
666;DHT22;315;48.738;9.126;2023-12-20T06:22:49;5.40;99.90
666;DHT22;315;48.738;9.126;2023-12-20T06:25:15;5.40;99.90
666;DHT22;315;48.738;9.126;2023-12-20T06:27:40;5.40;99.90
666;DHT22;315;48.738;9.126;2023-12-20T06:30:07;5.40;99.90
666;DHT22;315;48.738;9.126;2023-12-20T06:32:35;5.40;99.90
666;DHT22;315;48.738;9.126;2023-12-20T06:35:01;5.40;99.90
666;DHT22;315;48.738;9.126;2023-12-20T06:37:26;5.40;99.90
666;DHT22;315;48.738;9.126;2023-12-20T06:39:52;5.40;99.90
666;DHT22;315;48.738;9.126;2023-12-20T06:42:17;5.40;99.90
666;DHT22;315;48.738;9.126;2023-12-20T06:44:43;5.40;99.90
666;DHT22;315;48.738;9.126;2023-12-20T06:47:08;5.40;99.90
666;DHT22;315;48.738;9.126;2023-12-20T06:49:34;5.50;99.90
666;DHT22;315;48.738;9.126;2023-12-20T06:51:59;5.50;99.90
666;DHT22;315;48.738;9.126;2023-12-20T06:54:25;5.50;99.90
666;DHT22;315;48.738;9.126;2023-12-20T06:56:50;5.40;99.90
666;DHT22;315;48.738;9.126;2023-12-20T06:59:16;5.40;99.90
666;DHT22;315;48.738;9.126;2023-12-20T07:01:41;5.40;99.90
666;DHT22;315;48.738;9.126;2023-12-20T07:04:07;5.40;99.90
666;DHT22;315;48.738;9.126;2023-12-20T07:06:32;5.40;99.90
666;DHT22;315;48.738;9.126;2023-12-20T07:08:58;5.50;99.90
666;DHT22;315;48.738;9.126;2023-12-20T07:11:23;5.50;99.90
666;DHT22;315;48.738;9.126;2023-12-20T07:13:49;5.50;99.90
666;DHT22;315;48.738;9.126;2023-12-20T07:16:15;5.50;99.90
666;DHT22;315;48.738;9.126;2023-12-20T07:18:40;5.50;99.90
666;DHT22;315;48.738;9.126;2023-12-20T07:21:06;5.50;99.90
666;DHT22;315;48.738;9.126;2023-12-20T07:23:33;5.60;99.90
666;DHT22;315;48.738;9.126;2023-12-20T07:25:59;5.60;99.90
666;DHT22;315;48.738;9.126;2023-12-20T07:28:24;5.60;99.90
666;DHT22;315;48.738;9.126;2023-12-20T07:30:50;5.60;99.90
666;DHT22;315;48.738;9.126;2023-12-20T07:33:15;5.70;99.90
666;DHT22;315;48.738;9.126;2023-12-20T07:35:41;5.60;99.90
666;DHT22;315;48.738;9.126;2023-12-20T07:38:07;5.60;99.90
666;DHT22;315;48.738;9.126;2023-12-20T07:40:32;5.60;99.90
666;DHT22;315;48.738;9.126;2023-12-20T07:42:58;5.60;99.90
666;DHT22;315;48.738;9.126;2023-12-20T07:45:23;5.50;99.90
666;DHT22;315;48.738;9.126;2023-12-20T07:47:49;5.50;99.90
666;DHT22;315;48.738;9.126;2023-12-20T07:50:15;5.40;99.90
666;DHT22;315;48.738;9.126;2023-12-20T07:52:41;5.40;99.90
666;DHT22;315;48.738;9.126;2023-12-20T07:55:07;5.40;99.90
666;DHT22;315;48.738;9.126;2023-12-20T07:57:32;5.40;99.90
666;DHT22;315;48.738;9.126;2023-12-20T07:59:58;5.40;99.90
666;DHT22;315;48.738;9.126;2023-12-20T08:02:23;5.40;99.90
666;DHT22;315;48.738;9.126;2023-12-20T08:04:49;5.40;99.90
666;DHT22;315;48.738;9.126;2023-12-20T08:07:14;5.40;99.90
666;DHT22;315;48.738;9.126;2023-12-20T08:09:40;5.40;99.90
666;DHT22;315;48.738;9.126;2023-12-20T08:12:06;5.40;99.90
666;DHT22;315;48.738;9.126;2023-12-20T08:14:31;5.30;99.90
666;DHT22;315;48.738;9.126;2023-12-20T08:16:57;5.30;99.90
666;DHT22;315;48.738;9.126;2023-12-20T08:19:22;5.30;99.90
666;DHT22;315;48.738;9.126;2023-12-20T08:21:48;5.30;99.90
666;DHT22;315;48.738;9.126;2023-12-20T08:24:14;5.30;99.90
666;DHT22;315;48.738;9.126;2023-12-20T08:26:39;5.30;99.90
666;DHT22;315;48.738;9.126;2023-12-20T08:29:04;5.30;99.90
666;DHT22;315;48.738;9.126;2023-12-20T08:31:30;5.30;99.90
666;DHT22;315;48.738;9.126;2023-12-20T08:33:56;5.30;99.90
666;DHT22;315;48.738;9.126;2023-12-20T08:36:22;5.30;99.90
666;DHT22;315;48.738;9.126;2023-12-20T08:38:48;5.30;99.90
666;DHT22;315;48.738;9.126;2023-12-20T08:41:15;5.30;99.90
666;DHT22;315;48.738;9.126;2023-12-20T08:43:40;5.40;99.90
666;DHT22;315;48.738;9.126;2023-12-20T08:46:06;5.40;99.90
666;DHT22;315;48.738;9.126;2023-12-20T08:48:31;5.50;99.90
666;DHT22;315;48.738;9.126;2023-12-20T08:50:57;5.60;99.90
666;DHT22;315;48.738;9.126;2023-12-20T08:53:22;5.50;99.90
666;DHT22;315;48.738;9.126;2023-12-20T08:55:48;5.40;99.90
666;DHT22;315;48.738;9.126;2023-12-20T08:58:14;5.30;99.90
666;DHT22;315;48.738;9.126;2023-12-20T09:00:39;5.20;99.90
666;DHT22;315;48.738;9.126;2023-12-20T09:03:05;5.10;99.90
666;DHT22;315;48.738;9.126;2023-12-20T09:05:31;5.10;99.90
666;DHT22;315;48.738;9.126;2023-12-20T09:07:57;5.40;99.90
666;DHT22;315;48.738;9.126;2023-12-20T09:10:22;6.30;99.90
666;DHT22;315;48.738;9.126;2023-12-20T09:12:51;7.90;99.90
666;DHT22;315;48.738;9.126;2023-12-20T09:15:20;10.20;99.90
666;DHT22;315;48.738;9.126;2023-12-20T09:17:46;11.90;99.90
666;DHT22;315;48.738;9.126;2023-12-20T09:20:11;12.90;99.90
666;DHT22;315;48.738;9.126;2023-12-20T09:22:38;13.10;99.90
666;DHT22;315;48.738;9.126;2023-12-20T09:25:05;13.60;99.90
666;DHT22;315;48.738;9.126;2023-12-20T09:27:30;14.30;99.90
666;DHT22;315;48.738;9.126;2023-12-20T09:29:56;15.70;99.90
666;DHT22;315;48.738;9.126;2023-12-20T09:32:22;15.90;99.90
666;DHT22;315;48.738;9.126;2023-12-20T09:34:48;15.70;99.90
666;DHT22;315;48.738;9.126;2023-12-20T09:37:13;17.20;99.90
666;DHT22;315;48.738;9.126;2023-12-20T09:39:39;18.40;91.30
666;DHT22;315;48.738;9.126;2023-12-20T09:42:06;18.00;88.50
666;DHT22;315;48.738;9.126;2023-12-20T09:44:32;17.30;90.20
666;DHT22;315;48.738;9.126;2023-12-20T09:47:05;17.10;90.50
666;DHT22;315;48.738;9.126;2023-12-20T09:49:31;16.80;91.10
666;DHT22;315;48.738;9.126;2023-12-20T09:51:57;16.70;88.70
666;DHT22;315;48.738;9.126;2023-12-20T09:54:25;16.50;91.80
666;DHT22;315;48.738;9.126;2023-12-20T09:56:51;16.60;89.20
666;DHT22;315;48.738;9.126;2023-12-20T09:59:16;16.10;90.90
666;DHT22;315;48.738;9.126;2023-12-20T10:01:43;17.50;88.10
666;DHT22;315;48.738;9.126;2023-12-20T10:04:10;18.50;77.90
666;DHT22;315;48.738;9.126;2023-12-20T10:06:41;18.50;68.60
666;DHT22;315;48.738;9.126;2023-12-20T10:09:07;17.50;72.90
666;DHT22;315;48.738;9.126;2023-12-20T10:11:34;18.00;76.10
666;DHT22;315;48.738;9.126;2023-12-20T10:14:00;18.20;68.50
666;DHT22;315;48.738;9.126;2023-12-20T10:16:29;18.10;65.50
666;DHT22;315;48.738;9.126;2023-12-20T10:18:56;17.90;69.60
666;DHT22;315;48.738;9.126;2023-12-20T10:21:25;17.60;69.30
666;DHT22;315;48.738;9.126;2023-12-20T10:23:53;15.40;76.60
666;DHT22;315;48.738;9.126;2023-12-20T10:26:22;13.40;92.30
666;DHT22;315;48.738;9.126;2023-12-20T10:28:53;12.40;97.70
666;DHT22;315;48.738;9.126;2023-12-20T10:31:30;11.10;99.90
666;DHT22;315;48.738;9.126;2023-12-20T10:33:56;10.30;99.90
666;DHT22;315;48.738;9.126;2023-12-20T10:36:24;9.90;99.90
666;DHT22;315;48.738;9.126;2023-12-20T10:38:52;9.50;99.90
666;DHT22;315;48.738;9.126;2023-12-20T10:41:28;9.40;99.90
666;DHT22;315;48.738;9.126;2023-12-20T10:44:02;9.00;99.90
666;DHT22;315;48.738;9.126;2023-12-20T10:46:30;8.60;99.90
666;DHT22;315;48.738;9.126;2023-12-20T10:48:57;8.30;99.90
666;DHT22;315;48.738;9.126;2023-12-20T10:51:24;8.20;99.90
666;DHT22;315;48.738;9.126;2023-12-20T10:53:52;8.00;99.90
666;DHT22;315;48.738;9.126;2023-12-20T10:56:19;8.10;99.90
666;DHT22;315;48.738;9.126;2023-12-20T10:58:48;8.20;99.90
666;DHT22;315;48.738;9.126;2023-12-20T11:01:15;8.20;99.90
666;DHT22;315;48.738;9.126;2023-12-20T11:03:48;8.10;99.90
666;DHT22;315;48.738;9.126;2023-12-20T11:08:52;8.20;99.90
666;DHT22;315;48.738;9.126;2023-12-20T11:12:15;8.10;99.90
666;DHT22;315;48.738;9.126;2023-12-20T11:14:27;8.10;99.90
666;DHT22;315;48.738;9.126;2023-12-20T11:17:09;8.10;99.90
666;DHT22;315;48.738;9.126;2023-12-20T11:20:03;7.90;99.90
666;DHT22;315;48.738;9.126;2023-12-20T11:22:32;7.90;99.90
666;DHT22;315;48.738;9.126;2023-12-20T11:25:06;8.00;99.90
666;DHT22;315;48.738;9.126;2023-12-20T11:27:33;8.00;99.90
666;DHT22;315;48.738;9.126;2023-12-20T11:29:59;8.00;99.90
666;DHT22;315;48.738;9.126;2023-12-20T11:35:00;7.70;99.90
666;DHT22;315;48.738;9.126;2023-12-20T11:37:36;7.60;99.90
666;DHT22;315;48.738;9.126;2023-12-20T11:42:33;7.60;99.90
666;DHT22;315;48.738;9.126;2023-12-20T11:45:01;7.50;99.90
666;DHT22;315;48.738;9.126;2023-12-20T11:47:28;7.50;99.90
666;DHT22;315;48.738;9.126;2023-12-20T11:49:53;7.40;99.90
666;DHT22;315;48.738;9.126;2023-12-20T11:52:21;7.50;99.90
666;DHT22;315;48.738;9.126;2023-12-20T11:54:46;7.60;99.90
666;DHT22;315;48.738;9.126;2023-12-20T11:57:13;7.60;99.90
666;DHT22;315;48.738;9.126;2023-12-20T11:59:38;7.60;99.90
666;DHT22;315;48.738;9.126;2023-12-20T12:02:04;7.50;99.90
666;DHT22;315;48.738;9.126;2023-12-20T12:04:30;7.30;99.90
666;DHT22;315;48.738;9.126;2023-12-20T12:06:55;7.30;99.90
666;DHT22;315;48.738;9.126;2023-12-20T12:09:21;7.20;99.90
666;DHT22;315;48.738;9.126;2023-12-20T12:11:46;7.20;99.90
666;DHT22;315;48.738;9.126;2023-12-20T12:14:12;7.10;99.90
666;DHT22;315;48.738;9.126;2023-12-20T12:16:37;7.10;99.90
666;DHT22;315;48.738;9.126;2023-12-20T12:19:03;7.10;99.90
666;DHT22;315;48.738;9.126;2023-12-20T12:21:29;7.20;99.90
666;DHT22;315;48.738;9.126;2023-12-20T12:24:09;7.20;99.90
666;DHT22;315;48.738;9.126;2023-12-20T12:26:34;7.40;99.90
666;DHT22;315;48.738;9.126;2023-12-20T12:29:00;7.30;99.90
666;DHT22;315;48.738;9.126;2023-12-20T12:31:26;7.30;99.90
666;DHT22;315;48.738;9.126;2023-12-20T12:33:52;7.40;99.90
666;DHT22;315;48.738;9.126;2023-12-20T12:36:17;7.50;99.90
666;DHT22;315;48.738;9.126;2023-12-20T12:38:43;7.50;99.90
666;DHT22;315;48.738;9.126;2023-12-20T12:41:09;7.40;99.90
666;DHT22;315;48.738;9.126;2023-12-20T12:43:37;7.60;99.90
666;DHT22;315;48.738;9.126;2023-12-20T12:46:03;8.40;99.90
666;DHT22;315;48.738;9.126;2023-12-20T12:48:28;8.70;99.90
666;DHT22;315;48.738;9.126;2023-12-20T12:50:54;8.30;99.90
666;DHT22;315;48.738;9.126;2023-12-20T12:53:22;8.00;99.90
666;DHT22;315;48.738;9.126;2023-12-20T12:55:48;7.80;99.90
666;DHT22;315;48.738;9.126;2023-12-20T12:58:13;7.50;99.90
666;DHT22;315;48.738;9.126;2023-12-20T13:00:39;7.40;99.90
666;DHT22;315;48.738;9.126;2023-12-20T13:03:04;7.30;99.90
666;DHT22;315;48.738;9.126;2023-12-20T13:05:30;7.30;99.90
666;DHT22;315;48.738;9.126;2023-12-20T13:07:56;7.40;99.90
666;DHT22;315;48.738;9.126;2023-12-20T13:10:21;7.30;99.90
666;DHT22;315;48.738;9.126;2023-12-20T13:12:47;7.20;99.90
666;DHT22;315;48.738;9.126;2023-12-20T13:15:13;7.10;99.90
666;DHT22;315;48.738;9.126;2023-12-20T13:17:38;7.10;99.90
666;DHT22;315;48.738;9.126;2023-12-20T13:20:05;7.10;99.90
666;DHT22;315;48.738;9.126;2023-12-20T13:22:31;7.10;99.90
666;DHT22;315;48.738;9.126;2023-12-20T13:24:57;7.20;99.90
666;DHT22;315;48.738;9.126;2023-12-20T13:27:22;7.30;99.90
666;DHT22;315;48.738;9.126;2023-12-20T13:29:48;7.80;99.90
666;DHT22;315;48.738;9.126;2023-12-20T13:32:13;9.00;99.90
666;DHT22;315;48.738;9.126;2023-12-20T13:34:39;9.50;99.90
666;DHT22;315;48.738;9.126;2023-12-20T13:37:04;9.30;99.90
666;DHT22;315;48.738;9.126;2023-12-20T13:39:30;9.10;99.90
666;DHT22;315;48.738;9.126;2023-12-20T13:41:56;9.10;99.90
666;DHT22;315;48.738;9.126;2023-12-20T13:44:22;8.70;99.90
666;DHT22;315;48.738;9.126;2023-12-20T13:46:48;8.20;99.90
666;DHT22;315;48.738;9.126;2023-12-20T13:49:15;8.10;99.90
666;DHT22;315;48.738;9.126;2023-12-20T13:51:41;7.60;99.90
666;DHT22;315;48.738;9.126;2023-12-20T13:54:06;7.40;99.90
666;DHT22;315;48.738;9.126;2023-12-20T13:56:32;7.20;99.90
666;DHT22;315;48.738;9.126;2023-12-20T13:58:58;7.10;99.90
666;DHT22;315;48.738;9.126;2023-12-20T14:01:25;7.00;99.90
666;DHT22;315;48.738;9.126;2023-12-20T14:03:51;6.90;99.90
666;DHT22;315;48.738;9.126;2023-12-20T14:06:17;6.90;99.90
666;DHT22;315;48.738;9.126;2023-12-20T14:08:43;6.90;99.90
666;DHT22;315;48.738;9.126;2023-12-20T14:11:09;6.90;99.90
666;DHT22;315;48.738;9.126;2023-12-20T14:13:34;6.90;99.90
666;DHT22;315;48.738;9.126;2023-12-20T14:16:01;6.80;99.90
666;DHT22;315;48.738;9.126;2023-12-20T14:18:27;6.70;99.90
666;DHT22;315;48.738;9.126;2023-12-20T14:20:53;6.60;99.90
666;DHT22;315;48.738;9.126;2023-12-20T14:23:19;6.50;99.90
666;DHT22;315;48.738;9.126;2023-12-20T14:25:44;6.40;99.90
666;DHT22;315;48.738;9.126;2023-12-20T14:28:10;6.40;99.90
666;DHT22;315;48.738;9.126;2023-12-20T14:30:37;6.40;99.90
666;DHT22;315;48.738;9.126;2023-12-20T14:33:03;6.40;99.90
666;DHT22;315;48.738;9.126;2023-12-20T14:35:29;6.30;99.90
666;DHT22;315;48.738;9.126;2023-12-20T14:37:55;6.30;99.90
666;DHT22;315;48.738;9.126;2023-12-20T14:40:20;6.20;99.90
666;DHT22;315;48.738;9.126;2023-12-20T14:42:46;6.20;99.90
666;DHT22;315;48.738;9.126;2023-12-20T14:45:12;6.20;99.90
666;DHT22;315;48.738;9.126;2023-12-20T14:47:38;6.10;99.90
666;DHT22;315;48.738;9.126;2023-12-20T14:50:05;6.10;99.90
666;DHT22;315;48.738;9.126;2023-12-20T14:52:32;6.00;99.90
666;DHT22;315;48.738;9.126;2023-12-20T14:54:59;6.00;99.90
666;DHT22;315;48.738;9.126;2023-12-20T14:57:25;6.00;99.90
666;DHT22;315;48.738;9.126;2023-12-20T14:59:51;5.90;99.90
666;DHT22;315;48.738;9.126;2023-12-20T15:02:17;5.90;99.90
666;DHT22;315;48.738;9.126;2023-12-20T15:04:43;5.90;99.90
666;DHT22;315;48.738;9.126;2023-12-20T15:07:08;5.90;99.90
666;DHT22;315;48.738;9.126;2023-12-20T15:09:34;5.80;99.90
666;DHT22;315;48.738;9.126;2023-12-20T15:11:59;5.80;99.90
666;DHT22;315;48.738;9.126;2023-12-20T15:14:26;5.70;99.90
666;DHT22;315;48.738;9.126;2023-12-20T15:16:51;5.70;99.90
666;DHT22;315;48.738;9.126;2023-12-20T15:19:17;5.70;99.90
666;DHT22;315;48.738;9.126;2023-12-20T15:21:42;5.80;99.90
666;DHT22;315;48.738;9.126;2023-12-20T15:24:11;5.70;99.90
666;DHT22;315;48.738;9.126;2023-12-20T15:26:42;5.60;99.90
666;DHT22;315;48.738;9.126;2023-12-20T15:29:08;5.50;99.90
666;DHT22;315;48.738;9.126;2023-12-20T15:31:36;5.40;99.90
666;DHT22;315;48.738;9.126;2023-12-20T15:34:02;5.40;99.90
666;DHT22;315;48.738;9.126;2023-12-20T15:36:28;5.40;99.90
666;DHT22;315;48.738;9.126;2023-12-20T15:38:53;5.40;99.90
666;DHT22;315;48.738;9.126;2023-12-20T15:41:20;5.30;99.90
666;DHT22;315;48.738;9.126;2023-12-20T15:43:45;5.40;99.90
666;DHT22;315;48.738;9.126;2023-12-20T15:46:11;5.40;99.90
666;DHT22;315;48.738;9.126;2023-12-20T15:48:37;5.30;99.90
666;DHT22;315;48.738;9.126;2023-12-20T15:51:09;5.30;99.90
666;DHT22;315;48.738;9.126;2023-12-20T15:53:35;5.30;99.90
666;DHT22;315;48.738;9.126;2023-12-20T15:56:02;5.30;99.90
666;DHT22;315;48.738;9.126;2023-12-20T15:58:29;5.30;99.90
666;DHT22;315;48.738;9.126;2023-12-20T16:00:54;5.30;99.90
666;DHT22;315;48.738;9.126;2023-12-20T16:03:20;5.20;99.90
666;DHT22;315;48.738;9.126;2023-12-20T16:05:45;5.20;99.90
666;DHT22;315;48.738;9.126;2023-12-20T16:08:11;5.20;99.90
666;DHT22;315;48.738;9.126;2023-12-20T16:10:36;5.20;99.90
666;DHT22;315;48.738;9.126;2023-12-20T16:13:02;5.20;99.90
666;DHT22;315;48.738;9.126;2023-12-20T16:15:27;5.20;99.90
666;DHT22;315;48.738;9.126;2023-12-20T16:17:53;5.20;99.90
666;DHT22;315;48.738;9.126;2023-12-20T16:20:18;5.20;99.90
666;DHT22;315;48.738;9.126;2023-12-20T16:22:44;5.20;99.90
666;DHT22;315;48.738;9.126;2023-12-20T16:25:09;5.20;99.90
666;DHT22;315;48.738;9.126;2023-12-20T16:27:36;5.10;99.90
666;DHT22;315;48.738;9.126;2023-12-20T16:30:02;5.10;99.90
666;DHT22;315;48.738;9.126;2023-12-20T16:32:28;5.10;99.90
666;DHT22;315;48.738;9.126;2023-12-20T16:34:53;5.10;99.90
666;DHT22;315;48.738;9.126;2023-12-20T16:37:19;5.10;99.90
666;DHT22;315;48.738;9.126;2023-12-20T16:39:44;5.10;99.90
666;DHT22;315;48.738;9.126;2023-12-20T16:42:10;5.10;99.90
666;DHT22;315;48.738;9.126;2023-12-20T16:44:35;5.20;99.90
666;DHT22;315;48.738;9.126;2023-12-20T16:47:01;5.20;99.90
666;DHT22;315;48.738;9.126;2023-12-20T16:49:26;5.20;99.90
666;DHT22;315;48.738;9.126;2023-12-20T16:51:52;5.10;99.90